sensor_id;sensor_type;location;lat;lon;timestamp;P1;durP1;ratioP1;P2;durP2;ratioP2
25359;SDS011;13311;51.386;0.016;2023-03-14T00:00:46;37.66;;;7.34;;
25359;SDS011;13311;51.386;0.016;2023-03-14T00:05:47;34.30;;;7.70;;
25359;SDS011;13311;51.386;0.016;2023-03-14T00:10:47;36.35;;;7.18;;
25359;SDS011;13311;51.386;0.016;2023-03-14T00:15:48;26.02;;;7.25;;
25359;SDS011;13311;51.386;0.016;2023-03-14T00:20:49;26.48;;;6.63;;
25359;SDS011;13311;51.386;0.016;2023-03-14T00:25:49;24.77;;;5.97;;
25359;SDS011;13311;51.386;0.016;2023-03-14T00:30:50;29.00;;;4.95;;
25359;SDS011;13311;51.386;0.016;2023-03-14T00:35:55;17.73;;;4.47;;
25359;SDS011;13311;51.386;0.016;2023-03-14T00:40:58;13.98;;;3.05;;
25359;SDS011;13311;51.386;0.016;2023-03-14T00:45:59;9.38;;;2.08;;
25359;SDS011;13311;51.386;0.016;2023-03-14T00:51:00;12.18;;;2.97;;
25359;SDS011;13311;51.386;0.016;2023-03-14T00:56:06;12.52;;;3.15;;
25359;SDS011;13311;51.386;0.016;2023-03-14T01:01:14;11.63;;;2.63;;
25359;SDS011;13311;51.386;0.016;2023-03-14T01:06:22;14.75;;;2.97;;
25359;SDS011;13311;51.386;0.016;2023-03-14T01:11:26;10.18;;;2.33;;
25359;SDS011;13311;51.386;0.016;2023-03-14T01:16:32;7.50;;;1.63;;
25359;SDS011;13311;51.386;0.016;2023-03-14T01:21:35;7.40;;;1.52;;
25359;SDS011;13311;51.386;0.016;2023-03-14T01:26:36;4.45;;;1.27;;
25359;SDS011;13311;51.386;0.016;2023-03-14T01:31:36;5.93;;;2.03;;
25359;SDS011;13311;51.386;0.016;2023-03-14T01:36:37;2.08;;;0.60;;
25359;SDS011;13311;51.386;0.016;2023-03-14T01:41:38;6.47;;;1.00;;
25359;SDS011;13311;51.386;0.016;2023-03-14T01:46:43;2.33;;;0.65;;
25359;SDS011;13311;51.386;0.016;2023-03-14T01:51:53;1.13;;;0.50;;
25359;SDS011;13311;51.386;0.016;2023-03-14T02:02:20;1.13;;;0.60;;
25359;SDS011;13311;51.386;0.016;2023-03-14T02:07:33;0.57;;;0.35;;
25359;SDS011;13311;51.386;0.016;2023-03-14T02:12:44;0.40;;;0.40;;
25359;SDS011;13311;51.386;0.016;2023-03-14T02:17:47;3.55;;;0.60;;
25359;SDS011;13311;51.386;0.016;2023-03-14T02:22:48;0.77;;;0.43;;
25359;SDS011;13311;51.386;0.016;2023-03-14T02:27:49;2.28;;;0.75;;
25359;SDS011;13311;51.386;0.016;2023-03-14T02:32:51;1.70;;;0.85;;
25359;SDS011;13311;51.386;0.016;2023-03-14T02:37:59;2.40;;;0.90;;
25359;SDS011;13311;51.386;0.016;2023-03-14T02:43:24;1.10;;;0.70;;
25359;SDS011;13311;51.386;0.016;2023-03-14T02:48:30;1.83;;;0.77;;
25359;SDS011;13311;51.386;0.016;2023-03-14T02:53:36;4.15;;;1.13;;
25359;SDS011;13311;51.386;0.016;2023-03-14T02:58:38;2.65;;;0.90;;
25359;SDS011;13311;51.386;0.016;2023-03-14T03:03:38;5.10;;;0.80;;
25359;SDS011;13311;51.386;0.016;2023-03-14T03:08:39;1.00;;;0.70;;
25359;SDS011;13311;51.386;0.016;2023-03-14T03:13:40;4.53;;;0.60;;
25359;SDS011;13311;51.386;0.016;2023-03-14T03:18:40;2.53;;;0.90;;
25359;SDS011;13311;51.386;0.016;2023-03-14T03:23:41;1.80;;;0.60;;
25359;SDS011;13311;51.386;0.016;2023-03-14T03:28:42;3.40;;;1.23;;
25359;SDS011;13311;51.386;0.016;2023-03-14T03:33:42;2.13;;;0.70;;
25359;SDS011;13311;51.386;0.016;2023-03-14T03:38:43;3.55;;;0.70;;
25359;SDS011;13311;51.386;0.016;2023-03-14T03:43:44;1.02;;;0.50;;
25359;SDS011;13311;51.386;0.016;2023-03-14T03:48:44;1.48;;;0.45;;
25359;SDS011;13311;51.386;0.016;2023-03-14T03:53:45;1.58;;;0.60;;
25359;SDS011;13311;51.386;0.016;2023-03-14T03:58:46;2.15;;;0.80;;
25359;SDS011;13311;51.386;0.016;2023-03-14T04:03:47;2.53;;;0.93;;
25359;SDS011;13311;51.386;0.016;2023-03-14T04:08:47;3.45;;;0.70;;
25359;SDS011;13311;51.386;0.016;2023-03-14T04:13:48;3.22;;;0.88;;
25359;SDS011;13311;51.386;0.016;2023-03-14T04:18:49;1.83;;;0.73;;
25359;SDS011;13311;51.386;0.016;2023-03-14T04:23:50;2.42;;;0.90;;
25359;SDS011;13311;51.386;0.016;2023-03-14T04:28:51;4.15;;;0.90;;
25359;SDS011;13311;51.386;0.016;2023-03-14T04:33:52;3.00;;;0.85;;
25359;SDS011;13311;51.386;0.016;2023-03-14T04:38:53;4.72;;;0.75;;
25359;SDS011;13311;51.386;0.016;2023-03-14T04:43:54;1.60;;;0.80;;
25359;SDS011;13311;51.386;0.016;2023-03-14T04:48:55;5.72;;;1.38;;
25359;SDS011;13311;51.386;0.016;2023-03-14T04:53:56;7.50;;;1.05;;
25359;SDS011;13311;51.386;0.016;2023-03-14T04:58:57;4.93;;;1.50;;
25359;SDS011;13311;51.386;0.016;2023-03-14T05:03:58;5.32;;;1.42;;
25359;SDS011;13311;51.386;0.016;2023-03-14T05:08:58;9.55;;;2.40;;
25359;SDS011;13311;51.386;0.016;2023-03-14T05:13:59;3.63;;;1.38;;
25359;SDS011;13311;51.386;0.016;2023-03-14T05:19:00;4.68;;;1.30;;
25359;SDS011;13311;51.386;0.016;2023-03-14T05:24:01;5.28;;;1.23;;
25359;SDS011;13311;51.386;0.016;2023-03-14T05:29:02;8.90;;;1.42;;
25359;SDS011;13311;51.386;0.016;2023-03-14T05:34:03;6.70;;;1.50;;
25359;SDS011;13311;51.386;0.016;2023-03-14T05:39:04;5.93;;;1.27;;
25359;SDS011;13311;51.386;0.016;2023-03-14T05:44:04;7.57;;;1.98;;
25359;SDS011;13311;51.386;0.016;2023-03-14T05:49:05;8.70;;;1.55;;
25359;SDS011;13311;51.386;0.016;2023-03-14T05:54:06;8.02;;;1.95;;
25359;SDS011;13311;51.386;0.016;2023-03-14T05:59:06;6.93;;;1.25;;
25359;SDS011;13311;51.386;0.016;2023-03-14T06:04:08;8.10;;;1.90;;
25359;SDS011;13311;51.386;0.016;2023-03-14T06:09:09;7.55;;;1.48;;
25359;SDS011;13311;51.386;0.016;2023-03-14T06:14:10;10.13;;;1.88;;
25359;SDS011;13311;51.386;0.016;2023-03-14T06:19:10;7.20;;;1.60;;
25359;SDS011;13311;51.386;0.016;2023-03-14T06:24:11;7.43;;;1.50;;
25359;SDS011;13311;51.386;0.016;2023-03-14T06:29:12;10.35;;;1.88;;
25359;SDS011;13311;51.386;0.016;2023-03-14T06:34:13;10.52;;;1.63;;
25359;SDS011;13311;51.386;0.016;2023-03-14T06:39:14;3.17;;;1.25;;
25359;SDS011;13311;51.386;0.016;2023-03-14T06:44:14;7.65;;;2.00;;
25359;SDS011;13311;51.386;0.016;2023-03-14T06:49:15;9.13;;;2.40;;
25359;SDS011;13311;51.386;0.016;2023-03-14T06:54:16;9.07;;;2.30;;
25359;SDS011;13311;51.386;0.016;2023-03-14T06:59:16;4.72;;;1.40;;
25359;SDS011;13311;51.386;0.016;2023-03-14T07:04:17;4.53;;;1.38;;
25359;SDS011;13311;51.386;0.016;2023-03-14T07:09:18;5.95;;;0.95;;
25359;SDS011;13311;51.386;0.016;2023-03-14T07:14:18;4.32;;;1.50;;
25359;SDS011;13311;51.386;0.016;2023-03-14T07:19:19;10.55;;;1.65;;
25359;SDS011;13311;51.386;0.016;2023-03-14T07:24:20;7.50;;;1.48;;
25359;SDS011;13311;51.386;0.016;2023-03-14T07:29:21;4.93;;;0.90;;
25359;SDS011;13311;51.386;0.016;2023-03-14T07:34:22;5.07;;;1.50;;
25359;SDS011;13311;51.386;0.016;2023-03-14T07:39:22;4.72;;;1.17;;
25359;SDS011;13311;51.386;0.016;2023-03-14T07:44:23;8.35;;;1.42;;
25359;SDS011;13311;51.386;0.016;2023-03-14T07:49:24;7.55;;;1.50;;
25359;SDS011;13311;51.386;0.016;2023-03-14T07:54:24;7.03;;;1.98;;
25359;SDS011;13311;51.386;0.016;2023-03-14T07:59:26;6.43;;;1.75;;
25359;SDS011;13311;51.386;0.016;2023-03-14T08:04:27;7.10;;;1.50;;
25359;SDS011;13311;51.386;0.016;2023-03-14T08:09:28;4.80;;;1.15;;
25359;SDS011;13311;51.386;0.016;2023-03-14T08:14:29;4.30;;;1.23;;
25359;SDS011;13311;51.386;0.016;2023-03-14T08:19:30;3.80;;;1.30;;
25359;SDS011;13311;51.386;0.016;2023-03-14T08:24:31;4.18;;;1.13;;
25359;SDS011;13311;51.386;0.016;2023-03-14T08:29:32;5.45;;;1.20;;
25359;SDS011;13311;51.386;0.016;2023-03-14T08:34:33;2.15;;;0.70;;
25359;SDS011;13311;51.386;0.016;2023-03-14T08:39:34;3.13;;;1.20;;
25359;SDS011;13311;51.386;0.016;2023-03-14T08:44:34;2.65;;;0.52;;
25359;SDS011;13311;51.386;0.016;2023-03-14T08:49:35;4.07;;;0.95;;
25359;SDS011;13311;51.386;0.016;2023-03-14T08:54:36;2.13;;;0.70;;
25359;SDS011;13311;51.386;0.016;2023-03-14T08:59:37;1.63;;;0.82;;
25359;SDS011;13311;51.386;0.016;2023-03-14T09:04:38;1.10;;;0.68;;
25359;SDS011;13311;51.386;0.016;2023-03-14T09:09:39;2.50;;;0.70;;
25359;SDS011;13311;51.386;0.016;2023-03-14T09:14:40;2.63;;;1.05;;
25359;SDS011;13311;51.386;0.016;2023-03-14T09:19:40;1.35;;;0.40;;
25359;SDS011;13311;51.386;0.016;2023-03-14T09:24:41;1.00;;;0.57;;
25359;SDS011;13311;51.386;0.016;2023-03-14T09:29:42;1.27;;;0.60;;
25359;SDS011;13311;51.386;0.016;2023-03-14T09:34:43;1.48;;;0.82;;
25359;SDS011;13311;51.386;0.016;2023-03-14T09:39:43;2.75;;;0.98;;
25359;SDS011;13311;51.386;0.016;2023-03-14T09:44:54;2.20;;;0.77;;
25359;SDS011;13311;51.386;0.016;2023-03-14T09:50:00;2.00;;;0.80;;
25359;SDS011;13311;51.386;0.016;2023-03-14T09:55:02;3.90;;;1.25;;
25359;SDS011;13311;51.386;0.016;2023-03-14T10:05:17;2.83;;;0.98;;
25359;SDS011;13311;51.386;0.016;2023-03-14T10:10:20;6.32;;;2.00;;
25359;SDS011;13311;51.386;0.016;2023-03-14T10:15:25;8.98;;;2.45;;
25359;SDS011;13311;51.386;0.016;2023-03-14T10:20:44;3.83;;;1.27;;
25359;SDS011;13311;51.386;0.016;2023-03-14T10:31:12;6.35;;;1.90;;
25359;SDS011;13311;51.386;0.016;2023-03-14T10:36:19;9.80;;;1.70;;
25359;SDS011;13311;51.386;0.016;2023-03-14T10:41:26;3.97;;;1.60;;
25359;SDS011;13311;51.386;0.016;2023-03-14T10:46:31;9.32;;;2.38;;
25359;SDS011;13311;51.386;0.016;2023-03-14T10:51:33;7.22;;;1.80;;
25359;SDS011;13311;51.386;0.016;2023-03-14T10:56:35;5.95;;;1.95;;
25359;SDS011;13311;51.386;0.016;2023-03-14T11:01:41;9.88;;;1.90;;
25359;SDS011;13311;51.386;0.016;2023-03-14T11:34:41;8.43;;;2.60;;
25359;SDS011;13311;51.386;0.016;2023-03-14T11:39:59;4.90;;;1.77;;
25359;SDS011;13311;51.386;0.016;2023-03-14T11:45:15;4.90;;;1.60;;
25359;SDS011;13311;51.386;0.016;2023-03-14T11:50:21;8.27;;;1.73;;
25359;SDS011;13311;51.386;0.016;2023-03-14T11:55:28;8.43;;;2.33;;
25359;SDS011;13311;51.386;0.016;2023-03-14T12:00:34;11.18;;;2.08;;
25359;SDS011;13311;51.386;0.016;2023-03-14T12:11:02;6.13;;;1.70;;
25359;SDS011;13311;51.386;0.016;2023-03-14T12:16:39;10.65;;;2.72;;
25359;SDS011;13311;51.386;0.016;2023-03-14T12:21:44;8.98;;;2.47;;
25359;SDS011;13311;51.386;0.016;2023-03-14T12:32:42;7.85;;;1.90;;
25359;SDS011;13311;51.386;0.016;2023-03-14T12:37:43;6.35;;;1.73;;
25359;SDS011;13311;51.386;0.016;2023-03-14T12:42:57;8.82;;;2.63;;
25359;SDS011;13311;51.386;0.016;2023-03-14T13:04:17;6.60;;;2.15;;
25359;SDS011;13311;51.386;0.016;2023-03-14T13:14:30;7.68;;;1.30;;
25359;SDS011;13311;51.386;0.016;2023-03-14T13:19:31;9.25;;;2.17;;
25359;SDS011;13311;51.386;0.016;2023-03-14T13:24:34;5.35;;;1.50;;
25359;SDS011;13311;51.386;0.016;2023-03-14T13:29:35;3.88;;;1.52;;
25359;SDS011;13311;51.386;0.016;2023-03-14T13:34:37;7.97;;;1.55;;
25359;SDS011;13311;51.386;0.016;2023-03-14T13:39:37;5.82;;;1.50;;
25359;SDS011;13311;51.386;0.016;2023-03-14T13:44:39;8.07;;;1.55;;
25359;SDS011;13311;51.386;0.016;2023-03-14T13:49:40;8.15;;;1.40;;
25359;SDS011;13311;51.386;0.016;2023-03-14T13:54:41;5.65;;;1.48;;
25359;SDS011;13311;51.386;0.016;2023-03-14T13:59:42;4.20;;;1.40;;
25359;SDS011;13311;51.386;0.016;2023-03-14T14:04:43;5.03;;;1.92;;
25359;SDS011;13311;51.386;0.016;2023-03-14T14:09:52;4.50;;;1.13;;
25359;SDS011;13311;51.386;0.016;2023-03-14T14:14:56;7.20;;;1.58;;
25359;SDS011;13311;51.386;0.016;2023-03-14T14:20:05;4.50;;;1.58;;
25359;SDS011;13311;51.386;0.016;2023-03-14T14:25:33;6.95;;;1.85;;
25359;SDS011;13311;51.386;0.016;2023-03-14T14:30:34;4.20;;;1.33;;
25359;SDS011;13311;51.386;0.016;2023-03-14T14:35:35;5.55;;;1.30;;
25359;SDS011;13311;51.386;0.016;2023-03-14T14:40:36;3.67;;;1.50;;
25359;SDS011;13311;51.386;0.016;2023-03-14T14:45:50;5.32;;;3.03;;
25359;SDS011;13311;51.386;0.016;2023-03-14T14:51:03;8.48;;;2.92;;
25359;SDS011;13311;51.386;0.016;2023-03-14T14:56:13;6.07;;;2.10;;
25359;SDS011;13311;51.386;0.016;2023-03-14T15:01:21;6.95;;;3.05;;
25359;SDS011;13311;51.386;0.016;2023-03-14T15:06:24;6.97;;;1.40;;
25359;SDS011;13311;51.386;0.016;2023-03-14T15:11:29;3.95;;;1.30;;
25359;SDS011;13311;51.386;0.016;2023-03-14T15:16:30;4.95;;;1.20;;
25359;SDS011;13311;51.386;0.016;2023-03-14T15:21:32;3.63;;;1.20;;
25359;SDS011;13311;51.386;0.016;2023-03-14T15:26:33;7.18;;;1.58;;
25359;SDS011;13311;51.386;0.016;2023-03-14T15:31:34;7.78;;;1.40;;
25359;SDS011;13311;51.386;0.016;2023-03-14T15:36:36;6.18;;;1.20;;
25359;SDS011;13311;51.386;0.016;2023-03-14T15:41:37;6.88;;;1.42;;
25359;SDS011;13311;51.386;0.016;2023-03-14T15:46:38;4.07;;;1.65;;
25359;SDS011;13311;51.386;0.016;2023-03-14T15:51:39;4.90;;;1.13;;
25359;SDS011;13311;51.386;0.016;2023-03-14T15:56:39;2.92;;;1.05;;
25359;SDS011;13311;51.386;0.016;2023-03-14T16:01:40;5.38;;;1.50;;
25359;SDS011;13311;51.386;0.016;2023-03-14T16:06:41;3.03;;;1.35;;
25359;SDS011;13311;51.386;0.016;2023-03-14T16:11:43;5.20;;;1.40;;
25359;SDS011;13311;51.386;0.016;2023-03-14T16:16:46;5.40;;;1.58;;
25359;SDS011;13311;51.386;0.016;2023-03-14T16:21:46;2.95;;;1.00;;
25359;SDS011;13311;51.386;0.016;2023-03-14T16:26:47;6.43;;;2.00;;
25359;SDS011;13311;51.386;0.016;2023-03-14T16:31:48;6.93;;;1.48;;
25359;SDS011;13311;51.386;0.016;2023-03-14T16:36:49;6.10;;;1.70;;
25359;SDS011;13311;51.386;0.016;2023-03-14T16:41:52;4.68;;;1.95;;
25359;SDS011;13311;51.386;0.016;2023-03-14T16:46:53;1.83;;;1.00;;
25359;SDS011;13311;51.386;0.016;2023-03-14T16:51:53;6.10;;;1.30;;
25359;SDS011;13311;51.386;0.016;2023-03-14T16:56:54;4.88;;;1.30;;
25359;SDS011;13311;51.386;0.016;2023-03-14T17:01:55;2.75;;;1.20;;
25359;SDS011;13311;51.386;0.016;2023-03-14T17:06:56;1.85;;;0.70;;
25359;SDS011;13311;51.386;0.016;2023-03-14T17:11:57;4.72;;;1.33;;
25359;SDS011;13311;51.386;0.016;2023-03-14T17:16:57;3.22;;;1.60;;
25359;SDS011;13311;51.386;0.016;2023-03-14T17:21:58;4.25;;;1.25;;
25359;SDS011;13311;51.386;0.016;2023-03-14T17:26:59;4.57;;;1.60;;
25359;SDS011;13311;51.386;0.016;2023-03-14T17:31:59;4.53;;;1.00;;
25359;SDS011;13311;51.386;0.016;2023-03-14T17:37:00;2.70;;;1.20;;
25359;SDS011;13311;51.386;0.016;2023-03-14T17:42:01;2.15;;;0.85;;
25359;SDS011;13311;51.386;0.016;2023-03-14T17:47:01;4.28;;;1.30;;
25359;SDS011;13311;51.386;0.016;2023-03-14T17:52:02;4.00;;;1.38;;
25359;SDS011;13311;51.386;0.016;2023-03-14T17:57:05;4.80;;;1.40;;
25359;SDS011;13311;51.386;0.016;2023-03-14T18:02:08;2.78;;;1.10;;
25359;SDS011;13311;51.386;0.016;2023-03-14T18:07:09;6.90;;;1.58;;
25359;SDS011;13311;51.386;0.016;2023-03-14T18:12:12;3.20;;;1.20;;
25359;SDS011;13311;51.386;0.016;2023-03-14T18:17:13;4.25;;;1.02;;
25359;SDS011;13311;51.386;0.016;2023-03-14T18:22:14;4.03;;;1.33;;
25359;SDS011;13311;51.386;0.016;2023-03-14T18:27:15;4.05;;;1.63;;
25359;SDS011;13311;51.386;0.016;2023-03-14T18:32:16;3.13;;;1.15;;
25359;SDS011;13311;51.386;0.016;2023-03-14T18:37:17;2.55;;;1.30;;
25359;SDS011;13311;51.386;0.016;2023-03-14T18:42:18;8.88;;;1.77;;
25359;SDS011;13311;51.386;0.016;2023-03-14T18:47:18;5.45;;;1.75;;
25359;SDS011;13311;51.386;0.016;2023-03-14T18:52:19;2.75;;;1.42;;
25359;SDS011;13311;51.386;0.016;2023-03-14T18:57:20;4.57;;;1.75;;
25359;SDS011;13311;51.386;0.016;2023-03-14T19:02:21;6.53;;;1.80;;
25359;SDS011;13311;51.386;0.016;2023-03-14T19:07:25;4.43;;;1.55;;
25359;SDS011;13311;51.386;0.016;2023-03-14T19:12:27;8.65;;;1.45;;
25359;SDS011;13311;51.386;0.016;2023-03-14T19:17:28;12.40;;;1.90;;
25359;SDS011;13311;51.386;0.016;2023-03-14T19:22:29;1.73;;;1.27;;
25359;SDS011;13311;51.386;0.016;2023-03-14T19:27:31;5.60;;;1.83;;
25359;SDS011;13311;51.386;0.016;2023-03-14T19:32:32;6.30;;;1.80;;
25359;SDS011;13311;51.386;0.016;2023-03-14T19:37:32;5.00;;;2.20;;
25359;SDS011;13311;51.386;0.016;2023-03-14T19:42:33;5.88;;;1.90;;
25359;SDS011;13311;51.386;0.016;2023-03-14T19:47:34;6.97;;;1.90;;
25359;SDS011;13311;51.386;0.016;2023-03-14T19:52:35;7.25;;;1.52;;
25359;SDS011;13311;51.386;0.016;2023-03-14T19:57:38;3.85;;;1.20;;
25359;SDS011;13311;51.386;0.016;2023-03-14T20:02:39;7.88;;;1.83;;
25359;SDS011;13311;51.386;0.016;2023-03-14T20:07:40;5.30;;;2.00;;
25359;SDS011;13311;51.386;0.016;2023-03-14T20:12:42;6.43;;;2.53;;
25359;SDS011;13311;51.386;0.016;2023-03-14T20:17:47;5.85;;;2.53;;
25359;SDS011;13311;51.386;0.016;2023-03-14T20:22:48;10.38;;;3.00;;
25359;SDS011;13311;51.386;0.016;2023-03-14T20:27:49;10.00;;;2.40;;
25359;SDS011;13311;51.386;0.016;2023-03-14T20:32:53;4.60;;;1.60;;
25359;SDS011;13311;51.386;0.016;2023-03-14T20:37:54;5.75;;;1.77;;
25359;SDS011;13311;51.386;0.016;2023-03-14T20:42:55;6.03;;;2.13;;
25359;SDS011;13311;51.386;0.016;2023-03-14T20:47:56;7.03;;;2.47;;
25359;SDS011;13311;51.386;0.016;2023-03-14T20:52:57;10.05;;;2.40;;
25359;SDS011;13311;51.386;0.016;2023-03-14T20:57:58;9.18;;;1.83;;
25359;SDS011;13311;51.386;0.016;2023-03-14T21:03:00;4.32;;;1.90;;
25359;SDS011;13311;51.386;0.016;2023-03-14T21:08:01;4.38;;;1.98;;
25359;SDS011;13311;51.386;0.016;2023-03-14T21:13:02;7.65;;;1.92;;
25359;SDS011;13311;51.386;0.016;2023-03-14T21:18:03;4.03;;;1.40;;
25359;SDS011;13311;51.386;0.016;2023-03-14T21:23:04;6.32;;;1.80;;
25359;SDS011;13311;51.386;0.016;2023-03-14T21:28:06;7.65;;;2.10;;
25359;SDS011;13311;51.386;0.016;2023-03-14T21:33:06;5.63;;;1.73;;
25359;SDS011;13311;51.386;0.016;2023-03-14T21:38:07;7.88;;;1.70;;
25359;SDS011;13311;51.386;0.016;2023-03-14T21:43:08;5.90;;;1.58;;
25359;SDS011;13311;51.386;0.016;2023-03-14T21:48:09;1.65;;;1.10;;
25359;SDS011;13311;51.386;0.016;2023-03-14T21:53:09;4.30;;;1.20;;
25359;SDS011;13311;51.386;0.016;2023-03-14T21:58:10;3.65;;;1.00;;
25359;SDS011;13311;51.386;0.016;2023-03-14T22:03:16;3.05;;;1.02;;
25359;SDS011;13311;51.386;0.016;2023-03-14T22:08:22;2.55;;;1.30;;
25359;SDS011;13311;51.386;0.016;2023-03-14T22:13:23;5.53;;;1.50;;
25359;SDS011;13311;51.386;0.016;2023-03-14T22:18:24;6.80;;;1.90;;
25359;SDS011;13311;51.386;0.016;2023-03-14T22:23:25;4.72;;;1.50;;
25359;SDS011;13311;51.386;0.016;2023-03-14T22:28:26;4.20;;;1.13;;
25359;SDS011;13311;51.386;0.016;2023-03-14T22:33:26;2.92;;;1.25;;
25359;SDS011;13311;51.386;0.016;2023-03-14T22:38:27;4.65;;;1.20;;
25359;SDS011;13311;51.386;0.016;2023-03-14T22:43:28;3.63;;;1.48;;
25359;SDS011;13311;51.386;0.016;2023-03-14T22:48:30;3.35;;;1.58;;
25359;SDS011;13311;51.386;0.016;2023-03-14T22:53:31;2.78;;;1.25;;
25359;SDS011;13311;51.386;0.016;2023-03-14T22:58:32;6.78;;;2.10;;
25359;SDS011;13311;51.386;0.016;2023-03-14T23:03:33;4.50;;;1.52;;
25359;SDS011;13311;51.386;0.016;2023-03-14T23:08:34;4.75;;;1.67;;
25359;SDS011;13311;51.386;0.016;2023-03-14T23:13:36;4.95;;;1.60;;
25359;SDS011;13311;51.386;0.016;2023-03-14T23:18:38;5.20;;;1.52;;
25359;SDS011;13311;51.386;0.016;2023-03-14T23:23:40;4.10;;;1.50;;
25359;SDS011;13311;51.386;0.016;2023-03-14T23:28:45;2.53;;;1.63;;
25359;SDS011;13311;51.386;0.016;2023-03-14T23:33:46;3.63;;;1.40;;
25359;SDS011;13311;51.386;0.016;2023-03-14T23:38:47;5.65;;;1.40;;
25359;SDS011;13311;51.386;0.016;2023-03-14T23:43:48;4.43;;;1.27;;
25359;SDS011;13311;51.386;0.016;2023-03-14T23:48:49;4.90;;;1.65;;
25359;SDS011;13311;51.386;0.016;2023-03-14T23:53:50;1.88;;;1.23;;
25359;SDS011;13311;51.386;0.016;2023-03-14T23:58:50;4.95;;;1.60;;
